Dexter, Michigan
Current Conditions -  °F | °C
As of 12:53 PM on Friday 19 Dec 2014 (Local Time) from KARB Reporting Station
Overcast Overcast  
Wind Chill: 28°   Ceiling: 1600
Heat Index: 28°   Visibility: 10mi
Dew Point: 21°   Wind: 3mph
Humidity: 75%   Direction: 320°NW
Pressure: 30.26"   Gusts: NA
Location:  42.34°N, 83.89°W
Report Text: KARB 191753Z 32003KT 10SM OVC016 M02/M06 A3026 RMK AO2 SLP256 T10221061 11022 21028 58003
Loading
Personal Weather Stations






























Interactive Weather Map New forecast layout! Learn more

10-Day Weather Forecast

Advertisements
Track Severe Weather on mobile